sensor_id;sensor_type;location;lat;lon;timestamp;pressure;altitude;pressure_sealevel;temperature;humidity
59043;BME280;44826;51.596;5.624;2022-12-07T00:01:15;101731.63;;;3.16;93.61
59043;BME280;44826;51.596;5.624;2022-12-07T00:03:42;101731.56;;;3.13;93.48
59043;BME280;44826;51.596;5.624;2022-12-07T00:06:10;101732.38;;;3.11;93.73
59043;BME280;44826;51.596;5.624;2022-12-07T00:08:35;101733.16;;;3.08;93.46
59043;BME280;44826;51.596;5.624;2022-12-07T00:11:03;101731.38;;;3.04;93.61
59043;BME280;44826;51.596;5.624;2022-12-07T00:13:29;101727.91;;;3.02;93.54
59043;BME280;44826;51.596;5.624;2022-12-07T00:15:54;101729.59;;;3.00;93.65
59043;BME280;44826;51.596;5.624;2022-12-07T00:18:20;101725.22;;;2.96;93.70
59043;BME280;44826;51.596;5.624;2022-12-07T00:20:45;101725.19;;;2.94;93.71
59043;BME280;44826;51.596;5.624;2022-12-07T00:23:10;101718.34;;;2.95;93.65
59043;BME280;44826;51.596;5.624;2022-12-07T00:25:35;101706.31;;;2.92;93.97
59043;BME280;44826;51.596;5.624;2022-12-07T00:28:01;101712.28;;;2.93;93.96
59043;BME280;44826;51.596;5.624;2022-12-07T00:30:26;101709.72;;;2.91;93.77
59043;BME280;44826;51.596;5.624;2022-12-07T00:32:51;101704.53;;;2.90;93.96
59043;BME280;44826;51.596;5.624;2022-12-07T00:35:16;101705.38;;;2.88;93.99
59043;BME280;44826;51.596;5.624;2022-12-07T00:37:42;101706.22;;;2.89;94.22
59043;BME280;44826;51.596;5.624;2022-12-07T00:40:07;101704.50;;;2.88;94.06
59043;BME280;44826;51.596;5.624;2022-12-07T00:42:33;101698.50;;;2.87;94.21
59043;BME280;44826;51.596;5.624;2022-12-07T00:44:58;101705.31;;;2.85;94.23
59043;BME280;44826;51.596;5.624;2022-12-07T00:47:23;101710.44;;;2.85;94.19
59043;BME280;44826;51.596;5.624;2022-12-07T00:49:48;101708.72;;;2.84;93.95
59043;BME280;44826;51.596;5.624;2022-12-07T00:52:14;101713.84;;;2.84;94.28
59043;BME280;44826;51.596;5.624;2022-12-07T00:54:40;101709.56;;;2.83;94.23
59043;BME280;44826;51.596;5.624;2022-12-07T00:57:05;101701.84;;;2.83;94.25
59043;BME280;44826;51.596;5.624;2022-12-07T00:59:30;101703.59;;;2.84;94.10
59043;BME280;44826;51.596;5.624;2022-12-07T01:01:56;101709.63;;;2.86;94.22
59043;BME280;44826;51.596;5.624;2022-12-07T01:04:21;101701.91;;;2.86;94.20
59043;BME280;44826;51.596;5.624;2022-12-07T01:06:46;101695.03;;;2.85;94.13
59043;BME280;44826;51.596;5.624;2022-12-07T01:09:11;101701.84;;;2.83;94.36
59043;BME280;44826;51.596;5.624;2022-12-07T01:11:37;101689.75;;;2.79;94.08
59043;BME280;44826;51.596;5.624;2022-12-07T01:14:02;101694.91;;;2.79;94.14
59043;BME280;44826;51.596;5.624;2022-12-07T01:16:30;101691.44;;;2.77;94.31
59043;BME280;44826;51.596;5.624;2022-12-07T01:18:57;101698.22;;;2.75;94.28
59043;BME280;44826;51.596;5.624;2022-12-07T01:21:31;101700.81;;;2.75;94.61
59043;BME280;44826;51.596;5.624;2022-12-07T01:23:59;101698.22;;;2.75;94.67
59043;BME280;44826;51.596;5.624;2022-12-07T01:26:25;101697.41;;;2.76;94.61
59043;BME280;44826;51.596;5.624;2022-12-07T01:28:51;101704.25;;;2.76;94.33
59043;BME280;44826;51.596;5.624;2022-12-07T01:31:22;101705.06;;;2.73;94.33
59043;BME280;44826;51.596;5.624;2022-12-07T01:33:50;101706.75;;;2.71;94.27
59043;BME280;44826;51.596;5.624;2022-12-07T01:36:19;101705.78;;;2.66;94.17
59043;BME280;44826;51.596;5.624;2022-12-07T01:38:45;101701.38;;;2.62;94.02
59043;BME280;44826;51.596;5.624;2022-12-07T01:41:11;101701.31;;;2.57;94.08
59043;BME280;44826;51.596;5.624;2022-12-07T01:44:17;101704.72;;;2.57;94.05
59043;BME280;44826;51.596;5.624;2022-12-07T01:46:48;101709.84;;;2.56;94.40
59043;BME280;44826;51.596;5.624;2022-12-07T01:49:29;101696.16;;;2.55;94.41
59043;BME280;44826;51.596;5.624;2022-12-07T01:52:18;101694.44;;;2.57;94.80
59043;BME280;44826;51.596;5.624;2022-12-07T01:54:45;101696.25;;;2.62;94.67
59043;BME280;44826;51.596;5.624;2022-12-07T01:57:13;101700.63;;;2.66;94.94
59043;BME280;44826;51.596;5.624;2022-12-07T01:59:41;101693.00;;;2.69;94.97
59043;BME280;44826;51.596;5.624;2022-12-07T02:02:10;101697.31;;;2.71;95.08
59043;BME280;44826;51.596;5.624;2022-12-07T02:04:37;101695.66;;;2.73;94.90
59043;BME280;44826;51.596;5.624;2022-12-07T02:07:03;101702.53;;;2.75;95.09
59043;BME280;44826;51.596;5.624;2022-12-07T02:09:29;101701.63;;;2.74;94.94
59043;BME280;44826;51.596;5.624;2022-12-07T02:11:54;101696.50;;;2.74;94.71
59043;BME280;44826;51.596;5.624;2022-12-07T02:14:20;101696.47;;;2.72;94.62
59043;BME280;44826;51.596;5.624;2022-12-07T02:19:38;101693.00;;;2.69;94.78
59043;BME280;44826;51.596;5.624;2022-12-07T02:25:28;101687.72;;;2.63;94.30
59043;BME280;44826;51.596;5.624;2022-12-07T02:28:06;101690.22;;;2.60;94.37
59043;BME280;44826;51.596;5.624;2022-12-07T02:30:35;101690.16;;;2.56;94.34
59043;BME280;44826;51.596;5.624;2022-12-07T02:33:08;101691.00;;;2.55;94.50
59043;BME280;44826;51.596;5.624;2022-12-07T02:36:25;101681.50;;;2.53;94.52
59043;BME280;44826;51.596;5.624;2022-12-07T02:39:12;101690.88;;;2.51;94.47
59043;BME280;44826;51.596;5.624;2022-12-07T02:41:47;101689.97;;;2.49;94.35
59043;BME280;44826;51.596;5.624;2022-12-07T02:44:18;101697.66;;;2.47;94.49
59043;BME280;44826;51.596;5.624;2022-12-07T02:46:54;101689.03;;;2.43;94.34
59043;BME280;44826;51.596;5.624;2022-12-07T02:49:22;101680.38;;;2.40;94.45
59043;BME280;44826;51.596;5.624;2022-12-07T02:51:48;101681.25;;;2.39;94.35
59043;BME280;44826;51.596;5.624;2022-12-07T02:54:17;101680.34;;;2.37;94.75
59043;BME280;44826;51.596;5.624;2022-12-07T02:59:43;101687.13;;;2.35;94.59
59043;BME280;44826;51.596;5.624;2022-12-07T03:08:00;101690.59;;;2.37;95.02
59043;BME280;44826;51.596;5.624;2022-12-07T03:11:05;101699.22;;;2.39;95.05
59043;BME280;44826;51.596;5.624;2022-12-07T03:16:47;101700.16;;;2.44;94.99
59043;BME280;44826;51.596;5.624;2022-12-07T03:19:16;101690.78;;;2.46;95.21
59043;BME280;44826;51.596;5.624;2022-12-07T03:21:55;101691.69;;;2.47;95.42
59043;BME280;44826;51.596;5.624;2022-12-07T03:24:26;101690.88;;;2.49;95.42
59043;BME280;44826;51.596;5.624;2022-12-07T03:27:03;101686.63;;;2.51;95.33
59043;BME280;44826;51.596;5.624;2022-12-07T03:29:35;101689.19;;;2.51;95.21
59043;BME280;44826;51.596;5.624;2022-12-07T03:32:06;101693.44;;;2.51;95.06
59043;BME280;44826;51.596;5.624;2022-12-07T03:34:46;101687.47;;;2.50;95.01
59043;BME280;44826;51.596;5.624;2022-12-07T03:37:26;101687.47;;;2.50;95.23
59043;BME280;44826;51.596;5.624;2022-12-07T03:40:21;101690.03;;;2.50;95.18
59043;BME280;44826;51.596;5.624;2022-12-07T03:42:48;101690.06;;;2.52;95.20
59043;BME280;44826;51.596;5.624;2022-12-07T03:45:15;101685.88;;;2.55;95.16
59043;BME280;44826;51.596;5.624;2022-12-07T03:47:43;101678.19;;;2.57;95.23
59043;BME280;44826;51.596;5.624;2022-12-07T03:50:20;101680.88;;;2.63;95.56
59043;BME280;44826;51.596;5.624;2022-12-07T03:52:54;101679.19;;;2.65;95.54
59043;BME280;44826;51.596;5.624;2022-12-07T03:55:29;101675.84;;;2.69;95.58
59043;BME280;44826;51.596;5.624;2022-12-07T03:57:59;101675.91;;;2.71;95.54
59043;BME280;44826;51.596;5.624;2022-12-07T04:00:25;101673.38;;;2.74;95.61
59043;BME280;44826;51.596;5.624;2022-12-07T04:02:52;101676.91;;;2.78;95.57
59043;BME280;44826;51.596;5.624;2022-12-07T04:05:18;101680.31;;;2.78;95.64
59043;BME280;44826;51.596;5.624;2022-12-07T04:07:44;101676.00;;;2.77;95.36
59043;BME280;44826;51.596;5.624;2022-12-07T04:10:10;101680.38;;;2.80;95.56
59043;BME280;44826;51.596;5.624;2022-12-07T04:12:35;101678.69;;;2.82;95.65
59043;BME280;44826;51.596;5.624;2022-12-07T04:15:00;101675.25;;;2.83;95.54
59043;BME280;44826;51.596;5.624;2022-12-07T04:17:26;101683.03;;;2.84;95.42
59043;BME280;44826;51.596;5.624;2022-12-07T04:19:51;101680.47;;;2.86;95.56
59043;BME280;44826;51.596;5.624;2022-12-07T04:22:16;101684.75;;;2.85;95.61
59043;BME280;44826;51.596;5.624;2022-12-07T04:24:41;101680.44;;;2.84;95.25
59043;BME280;44826;51.596;5.624;2022-12-07T04:27:07;101679.63;;;2.85;95.28
59043;BME280;44826;51.596;5.624;2022-12-07T04:29:32;101683.03;;;2.84;95.18
59043;BME280;44826;51.596;5.624;2022-12-07T04:31:57;101680.44;;;2.84;95.69
59043;BME280;44826;51.596;5.624;2022-12-07T04:34:23;101671.91;;;2.87;95.04
59043;BME280;44826;51.596;5.624;2022-12-07T04:36:48;101676.16;;;2.83;95.20
59043;BME280;44826;51.596;5.624;2022-12-07T04:39:20;101678.72;;;2.83;95.12
59043;BME280;44826;51.596;5.624;2022-12-07T04:41:46;101676.16;;;2.83;95.28
59043;BME280;44826;51.596;5.624;2022-12-07T04:44:12;101675.25;;;2.83;94.88
59043;BME280;44826;51.596;5.624;2022-12-07T04:46:39;101672.69;;;2.81;94.89
59043;BME280;44826;51.596;5.624;2022-12-07T04:49:04;101676.97;;;2.81;94.80
59043;BME280;44826;51.596;5.624;2022-12-07T04:51:29;101667.53;;;2.81;94.72
59043;BME280;44826;51.596;5.624;2022-12-07T04:53:55;101664.94;;;2.80;94.75
59043;BME280;44826;51.596;5.624;2022-12-07T04:56:22;101660.59;;;2.77;94.61
59043;BME280;44826;51.596;5.624;2022-12-07T04:58:48;101667.41;;;2.75;94.65
59043;BME280;44826;51.596;5.624;2022-12-07T05:01:15;101658.81;;;2.73;94.72
59043;BME280;44826;51.596;5.624;2022-12-07T05:03:41;101660.50;;;2.71;94.79
59043;BME280;44826;51.596;5.624;2022-12-07T05:06:07;101654.44;;;2.69;94.92
59043;BME280;44826;51.596;5.624;2022-12-07T05:08:34;101653.50;;;2.65;94.51
59043;BME280;44826;51.596;5.624;2022-12-07T05:11:00;101652.59;;;2.62;94.72
59043;BME280;44826;51.596;5.624;2022-12-07T05:13:26;101656.81;;;2.60;94.69
59043;BME280;44826;51.596;5.624;2022-12-07T05:15:51;101655.91;;;2.57;94.82
59043;BME280;44826;51.596;5.624;2022-12-07T05:18:16;101661.03;;;2.56;94.72
59043;BME280;44826;51.596;5.624;2022-12-07T05:20:43;101660.97;;;2.53;94.82
59043;BME280;44826;51.596;5.624;2022-12-07T05:23:09;101654.97;;;2.52;94.62
59043;BME280;44826;51.596;5.624;2022-12-07T05:25:35;101661.78;;;2.52;94.82
59043;BME280;44826;51.596;5.624;2022-12-07T05:28:00;101659.22;;;2.52;94.90
59043;BME280;44826;51.596;5.624;2022-12-07T05:30:26;101658.38;;;2.51;94.91
59043;BME280;44826;51.596;5.624;2022-12-07T05:32:51;101659.22;;;2.52;94.61
59043;BME280;44826;51.596;5.624;2022-12-07T05:35:17;101662.63;;;2.51;94.52
59043;BME280;44826;51.596;5.624;2022-12-07T05:37:43;101660.03;;;2.49;94.78
59043;BME280;44826;51.596;5.624;2022-12-07T05:40:09;101653.16;;;2.48;94.48
59043;BME280;44826;51.596;5.624;2022-12-07T05:42:35;101660.84;;;2.47;94.71
59043;BME280;44826;51.596;5.624;2022-12-07T05:45:00;101659.97;;;2.46;94.83
59043;BME280;44826;51.596;5.624;2022-12-07T05:47:25;101665.09;;;2.45;94.90
59043;BME280;44826;51.596;5.624;2022-12-07T05:49:51;101657.38;;;2.45;94.77
59043;BME280;44826;51.596;5.624;2022-12-07T05:52:16;101656.50;;;2.44;94.49
59043;BME280;44826;51.596;5.624;2022-12-07T05:54:41;101653.09;;;2.43;94.55
59043;BME280;44826;51.596;5.624;2022-12-07T05:57:07;101652.25;;;2.45;94.75
59043;BME280;44826;51.596;5.624;2022-12-07T05:59:32;101645.31;;;2.42;94.78
59043;BME280;44826;51.596;5.624;2022-12-07T06:02:01;101648.72;;;2.39;94.48
59043;BME280;44826;51.596;5.624;2022-12-07T06:04:29;101645.28;;;2.39;94.57
59043;BME280;44826;51.596;5.624;2022-12-07T06:06:55;101636.69;;;2.37;94.59
59043;BME280;44826;51.596;5.624;2022-12-07T06:09:22;101639.19;;;2.34;94.70
59043;BME280;44826;51.596;5.624;2022-12-07T06:11:47;101646.00;;;2.33;94.64
59043;BME280;44826;51.596;5.624;2022-12-07T06:14:31;101641.69;;;2.32;94.82
59043;BME280;44826;51.596;5.624;2022-12-07T06:16:57;101645.97;;;2.32;94.70
59043;BME280;44826;51.596;5.624;2022-12-07T06:19:23;101647.66;;;2.30;94.61
59043;BME280;44826;51.596;5.624;2022-12-07T06:21:48;101644.16;;;2.27;94.51
59043;BME280;44826;51.596;5.624;2022-12-07T06:24:15;101642.44;;;2.26;94.49
59043;BME280;44826;51.596;5.624;2022-12-07T06:26:41;101647.56;;;2.26;94.45
59043;BME280;44826;51.596;5.624;2022-12-07T06:29:07;101645.84;;;2.25;94.54
59043;BME280;44826;51.596;5.624;2022-12-07T06:31:32;101646.66;;;2.24;94.70
59043;BME280;44826;51.596;5.624;2022-12-07T06:34:02;101667.19;;;2.23;94.82
59043;BME280;44826;51.596;5.624;2022-12-07T06:36:28;101661.16;;;2.21;94.83
59043;BME280;44826;51.596;5.624;2022-12-07T06:38:53;101661.13;;;2.19;94.74
59043;BME280;44826;51.596;5.624;2022-12-07T06:41:18;101659.38;;;2.18;94.91
59043;BME280;44826;51.596;5.624;2022-12-07T06:43:43;101664.53;;;2.18;94.63
59043;BME280;44826;51.596;5.624;2022-12-07T06:46:09;101660.16;;;2.16;94.64
59043;BME280;44826;51.596;5.624;2022-12-07T06:48:34;101651.63;;;2.15;94.69
59043;BME280;44826;51.596;5.624;2022-12-07T06:50:59;101655.03;;;2.16;94.53
59043;BME280;44826;51.596;5.624;2022-12-07T06:53:24;101661.06;;;2.16;94.76
59043;BME280;44826;51.596;5.624;2022-12-07T06:55:50;101661.91;;;2.17;94.96
59043;BME280;44826;51.596;5.624;2022-12-07T06:58:16;101661.97;;;2.18;94.97
59043;BME280;44826;51.596;5.624;2022-12-07T07:00:42;101657.72;;;2.20;95.12
59043;BME280;44826;51.596;5.624;2022-12-07T07:03:07;101657.72;;;2.20;95.00
59043;BME280;44826;51.596;5.624;2022-12-07T07:05:32;101657.72;;;2.20;95.16
59043;BME280;44826;51.596;5.624;2022-12-07T07:07:57;101656.84;;;2.20;95.06
59043;BME280;44826;51.596;5.624;2022-12-07T07:10:23;101658.56;;;2.19;95.02
59043;BME280;44826;51.596;5.624;2022-12-07T07:12:48;101666.25;;;2.19;95.11
59043;BME280;44826;51.596;5.624;2022-12-07T07:15:13;101661.97;;;2.18;94.69
59043;BME280;44826;51.596;5.624;2022-12-07T07:17:39;101661.13;;;2.19;95.03
59043;BME280;44826;51.596;5.624;2022-12-07T07:20:05;101659.47;;;2.21;94.92
59043;BME280;44826;51.596;5.624;2022-12-07T07:22:30;101652.63;;;2.23;94.83
59043;BME280;44826;51.596;5.624;2022-12-07T07:24:55;101660.34;;;2.23;94.92
59043;BME280;44826;51.596;5.624;2022-12-07T07:27:21;101659.56;;;2.26;95.03
59043;BME280;44826;51.596;5.624;2022-12-07T07:29:46;101658.72;;;2.27;95.31
59043;BME280;44826;51.596;5.624;2022-12-07T07:32:11;101661.31;;;2.28;95.36
59043;BME280;44826;51.596;5.624;2022-12-07T07:34:37;101657.91;;;2.30;95.49
59043;BME280;44826;51.596;5.624;2022-12-07T07:37:02;101657.09;;;2.31;95.12
59043;BME280;44826;51.596;5.624;2022-12-07T07:39:27;101664.78;;;2.31;95.14
59043;BME280;44826;51.596;5.624;2022-12-07T07:41:53;101661.38;;;2.32;95.19
59043;BME280;44826;51.596;5.624;2022-12-07T07:44:18;101661.38;;;2.32;95.04
59043;BME280;44826;51.596;5.624;2022-12-07T07:46:43;101668.19;;;2.30;94.94
59043;BME280;44826;51.596;5.624;2022-12-07T07:49:09;101671.59;;;2.28;94.67
59043;BME280;44826;51.596;5.624;2022-12-07T07:51:35;101675.75;;;2.23;94.80
59043;BME280;44826;51.596;5.624;2022-12-07T07:54:01;101680.03;;;2.23;94.66
59043;BME280;44826;51.596;5.624;2022-12-07T07:56:26;101680.03;;;2.23;94.69
59043;BME280;44826;51.596;5.624;2022-12-07T07:58:52;101679.13;;;2.22;94.79
59043;BME280;44826;51.596;5.624;2022-12-07T08:01:17;101668.03;;;2.23;94.79
59043;BME280;44826;51.596;5.624;2022-12-07T08:03:45;101678.38;;;2.26;95.04
59043;BME280;44826;51.596;5.624;2022-12-07T08:06:10;101676.72;;;2.28;94.43
59043;BME280;44826;51.596;5.624;2022-12-07T08:08:36;101672.50;;;2.31;94.97
59043;BME280;44826;51.596;5.624;2022-12-07T08:11:05;101670.00;;;2.34;94.92
59043;BME280;44826;51.596;5.624;2022-12-07T08:13:30;101666.59;;;2.35;95.23
59043;BME280;44826;51.596;5.624;2022-12-07T08:15:55;101672.66;;;2.38;95.13
59043;BME280;44826;51.596;5.624;2022-12-07T08:18:21;101667.59;;;2.41;95.39
59043;BME280;44826;51.596;5.624;2022-12-07T08:20:46;101670.25;;;2.46;95.42
59043;BME280;44826;51.596;5.624;2022-12-07T08:23:11;101672.00;;;2.49;95.37
59043;BME280;44826;51.596;5.624;2022-12-07T08:25:37;101672.06;;;2.50;95.38
59043;BME280;44826;51.596;5.624;2022-12-07T08:28:02;101682.41;;;2.53;95.36
59043;BME280;44826;51.596;5.624;2022-12-07T08:30:28;101681.59;;;2.57;95.34
59043;BME280;44826;51.596;5.624;2022-12-07T08:32:54;101678.28;;;2.62;95.09
59043;BME280;44826;51.596;5.624;2022-12-07T08:35:20;101681.75;;;2.64;94.76
59043;BME280;44826;51.596;5.624;2022-12-07T08:37:46;101681.75;;;2.65;94.97
59043;BME280;44826;51.596;5.624;2022-12-07T08:40:12;101686.97;;;2.68;94.56
59043;BME280;44826;51.596;5.624;2022-12-07T08:42:42;101693.91;;;2.71;94.97
59043;BME280;44826;51.596;5.624;2022-12-07T08:45:12;101691.34;;;2.72;94.66
59043;BME280;44826;51.596;5.624;2022-12-07T08:47:42;101686.22;;;2.72;94.83
59043;BME280;44826;51.596;5.624;2022-12-07T08:50:10;101692.25;;;2.75;94.75
59043;BME280;44826;51.596;5.624;2022-12-07T08:52:36;101690.53;;;2.75;94.72
59043;BME280;44826;51.596;5.624;2022-12-07T08:55:03;101691.38;;;2.74;94.41
59043;BME280;44826;51.596;5.624;2022-12-07T08:57:29;101685.38;;;2.75;94.93
59043;BME280;44826;51.596;5.624;2022-12-07T08:59:55;101690.53;;;2.75;94.42
59043;BME280;44826;51.596;5.624;2022-12-07T09:02:20;101692.25;;;2.75;94.53
59043;BME280;44826;51.596;5.624;2022-12-07T09:04:46;101686.22;;;2.74;94.58
59043;BME280;44826;51.596;5.624;2022-12-07T09:07:11;101690.53;;;2.75;94.56
59043;BME280;44826;51.596;5.624;2022-12-07T09:09:36;101682.81;;;2.75;94.51
59043;BME280;44826;51.596;5.624;2022-12-07T09:12:02;101685.50;;;2.80;94.63
59043;BME280;44826;51.596;5.624;2022-12-07T09:14:27;101676.16;;;2.83;94.99
59043;BME280;44826;51.596;5.624;2022-12-07T09:16:52;101685.66;;;2.87;94.71
59043;BME280;44826;51.596;5.624;2022-12-07T09:19:18;101683.16;;;2.92;94.54
59043;BME280;44826;51.596;5.624;2022-12-07T09:21:43;101679.78;;;2.95;94.79
59043;BME280;44826;51.596;5.624;2022-12-07T09:24:08;101681.59;;;3.00;94.61
59043;BME280;44826;51.596;5.624;2022-12-07T09:26:34;101689.44;;;3.07;94.46
59043;BME280;44826;51.596;5.624;2022-12-07T09:29:00;101686.13;;;3.12;94.57
59043;BME280;44826;51.596;5.624;2022-12-07T09:31:26;101687.91;;;3.15;94.13
59043;BME280;44826;51.596;5.624;2022-12-07T09:33:59;101685.41;;;3.19;94.15
59043;BME280;44826;51.596;5.624;2022-12-07T09:36:25;101685.41;;;3.19;94.03
59043;BME280;44826;51.596;5.624;2022-12-07T09:38:51;101687.13;;;3.21;94.10
59043;BME280;44826;51.596;5.624;2022-12-07T09:41:17;101687.13;;;3.21;94.12
59043;BME280;44826;51.596;5.624;2022-12-07T09:43:42;101688.03;;;3.23;93.98
59043;BME280;44826;51.596;5.624;2022-12-07T09:46:13;101685.50;;;3.26;93.83
59043;BME280;44826;51.596;5.624;2022-12-07T09:48:40;101693.28;;;3.29;94.23
59043;BME280;44826;51.596;5.624;2022-12-07T09:51:15;101677.91;;;3.32;93.78
59043;BME280;44826;51.596;5.624;2022-12-07T09:53:41;101677.91;;;3.33;94.26
59043;BME280;44826;51.596;5.624;2022-12-07T09:56:11;101678.81;;;3.36;93.96
59043;BME280;44826;51.596;5.624;2022-12-07T09:58:38;101675.44;;;3.38;93.83
59043;BME280;44826;51.596;5.624;2022-12-07T10:01:14;101677.22;;;3.42;93.67
59043;BME280;44826;51.596;5.624;2022-12-07T10:03:45;101680.66;;;3.41;93.67
59043;BME280;44826;51.596;5.624;2022-12-07T10:06:13;101676.34;;;3.42;93.40
59043;BME280;44826;51.596;5.624;2022-12-07T10:08:39;101678.09;;;3.43;93.35
59043;BME280;44826;51.596;5.624;2022-12-07T10:11:06;101671.28;;;3.45;93.61
59043;BME280;44826;51.596;5.624;2022-12-07T10:13:44;101663.63;;;3.49;93.44
59043;BME280;44826;51.596;5.624;2022-12-07T10:16:41;101670.56;;;3.54;93.60
59043;BME280;44826;51.596;5.624;2022-12-07T10:19:23;101666.34;;;3.59;93.19
59043;BME280;44826;51.596;5.624;2022-12-07T10:24:37;101666.50;;;3.67;93.49
59043;BME280;44826;51.596;5.624;2022-12-07T10:27:04;101658.78;;;3.68;93.34
59043;BME280;44826;51.596;5.624;2022-12-07T10:29:38;101660.56;;;3.72;93.10
59043;BME280;44826;51.596;5.624;2022-12-07T10:34:40;101656.41;;;3.80;93.20
59043;BME280;44826;51.596;5.624;2022-12-07T10:37:26;101648.78;;;3.87;92.53
59043;BME280;44826;51.596;5.624;2022-12-07T10:39:55;101651.47;;;3.94;92.66
59043;BME280;44826;51.596;5.624;2022-12-07T10:42:23;101645.63;;;4.06;92.88
59043;BME280;44826;51.596;5.624;2022-12-07T10:44:50;101642.38;;;4.20;92.45
59043;BME280;44826;51.596;5.624;2022-12-07T10:47:53;101638.28;;;4.34;92.95
59043;BME280;44826;51.596;5.624;2022-12-07T10:50:29;101636.59;;;4.36;92.22
59043;BME280;44826;51.596;5.624;2022-12-07T10:53:32;101639.25;;;4.43;91.75
59043;BME280;44826;51.596;5.624;2022-12-07T10:56:23;101639.25;;;4.46;90.70
59043;BME280;44826;51.596;5.624;2022-12-07T11:01:45;101623.84;;;4.49;90.96
59043;BME280;44826;51.596;5.624;2022-12-07T11:15:39;101613.00;;;4.76;89.57
59043;BME280;44826;51.596;5.624;2022-12-07T11:18:14;101608.75;;;4.83;89.51
59043;BME280;44826;51.596;5.624;2022-12-07T11:24:14;101610.59;;;4.93;89.13
59043;BME280;44826;51.596;5.624;2022-12-07T11:26:57;101599.44;;;4.94;89.20
59043;BME280;44826;51.596;5.624;2022-12-07T11:29:39;101599.50;;;5.02;89.73
59043;BME280;44826;51.596;5.624;2022-12-07T11:32:31;101600.38;;;5.03;88.83
59043;BME280;44826;51.596;5.624;2022-12-07T11:38:23;101584.97;;;5.09;88.98
59043;BME280;44826;51.596;5.624;2022-12-07T11:40:53;101588.38;;;5.09;88.32
59043;BME280;44826;51.596;5.624;2022-12-07T11:43:34;101578.91;;;5.08;88.16
59043;BME280;44826;51.596;5.624;2022-12-07T11:46:04;101574.66;;;5.09;88.65
59043;BME280;44826;51.596;5.624;2022-12-07T11:48:45;101574.66;;;5.09;87.61
59043;BME280;44826;51.596;5.624;2022-12-07T11:51:12;101572.03;;;5.07;87.73
59043;BME280;44826;51.596;5.624;2022-12-07T11:53:45;101580.63;;;5.06;87.93
59043;BME280;44826;51.596;5.624;2022-12-07T11:56:15;101573.72;;;5.05;87.71
59043;BME280;44826;51.596;5.624;2022-12-07T12:03:41;101563.44;;;5.07;87.93
59043;BME280;44826;51.596;5.624;2022-12-07T12:06:08;101560.91;;;5.10;87.35
59043;BME280;44826;51.596;5.624;2022-12-07T12:08:43;101561.78;;;5.13;87.87
59043;BME280;44826;51.596;5.624;2022-12-07T12:17:54;101552.41;;;5.23;87.93
59043;BME280;44826;51.596;5.624;2022-12-07T12:20:30;101555.88;;;5.30;86.63
59043;BME280;44826;51.596;5.624;2022-12-07T12:23:12;101553.41;;;5.41;86.94
59043;BME280;44826;51.596;5.624;2022-12-07T12:25:43;101555.19;;;5.51;86.55
59043;BME280;44826;51.596;5.624;2022-12-07T12:33:51;101561.28;;;5.62;86.30
59043;BME280;44826;51.596;5.624;2022-12-07T12:47:00;101540.59;;;5.56;85.76
59043;BME280;44826;51.596;5.624;2022-12-07T12:49:40;101533.75;;;5.61;87.36
59043;BME280;44826;51.596;5.624;2022-12-07T12:57:30;101526.06;;;5.69;86.29
59043;BME280;44826;51.596;5.624;2022-12-07T12:59:58;101526.91;;;5.73;84.78
59043;BME280;44826;51.596;5.624;2022-12-07T13:02:32;101519.16;;;5.74;85.80
59043;BME280;44826;51.596;5.624;2022-12-07T13:23:37;101501.03;;;5.57;85.39
59043;BME280;44826;51.596;5.624;2022-12-07T13:26:22;101490.72;;;5.67;85.89
59043;BME280;44826;51.596;5.624;2022-12-07T13:31:37;101485.63;;;5.82;85.07
59043;BME280;44826;51.596;5.624;2022-12-07T13:34:26;101477.91;;;5.82;84.42
59043;BME280;44826;51.596;5.624;2022-12-07T13:36:50;101481.31;;;5.75;82.86
59043;BME280;44826;51.596;5.624;2022-12-07T13:39:24;101479.53;;;5.65;82.41
59043;BME280;44826;51.596;5.624;2022-12-07T13:41:57;101479.50;;;5.57;83.04
59043;BME280;44826;51.596;5.624;2022-12-07T13:44:24;101482.91;;;5.50;83.48
59043;BME280;44826;51.596;5.624;2022-12-07T13:49:23;101469.94;;;5.40;83.65
59043;BME280;44826;51.596;5.624;2022-12-07T13:51:49;101463.06;;;5.38;83.57
59043;BME280;44826;51.596;5.624;2022-12-07T13:54:15;101461.34;;;5.35;83.70
59043;BME280;44826;51.596;5.624;2022-12-07T13:56:41;101460.47;;;5.36;83.17
59043;BME280;44826;51.596;5.624;2022-12-07T13:59:19;101456.16;;;5.38;83.92
59043;BME280;44826;51.596;5.624;2022-12-07T14:01:47;101458.78;;;5.40;83.22
59043;BME280;44826;51.596;5.624;2022-12-07T14:06:48;101451.94;;;5.45;83.39
59043;BME280;44826;51.596;5.624;2022-12-07T14:09:24;101450.22;;;5.49;83.25
59043;BME280;44826;51.596;5.624;2022-12-07T14:11:53;101451.09;;;5.51;83.25
59043;BME280;44826;51.596;5.624;2022-12-07T14:14:25;101450.25;;;5.55;83.07
59043;BME280;44826;51.596;5.624;2022-12-07T14:17:15;101441.66;;;5.57;83.59
59043;BME280;44826;51.596;5.624;2022-12-07T14:22:33;101442.50;;;5.53;83.67
59043;BME280;44826;51.596;5.624;2022-12-07T14:27:33;101444.19;;;5.48;83.55
59043;BME280;44826;51.596;5.624;2022-12-07T14:30:00;101441.59;;;5.45;84.15
59043;BME280;44826;51.596;5.624;2022-12-07T14:32:28;101443.31;;;5.43;84.52
59043;BME280;44826;51.596;5.624;2022-12-07T14:34:55;101437.25;;;5.38;84.96
59043;BME280;44826;51.596;5.624;2022-12-07T14:37:21;101435.50;;;5.34;84.82
59043;BME280;44826;51.596;5.624;2022-12-07T14:39:46;101441.53;;;5.31;85.38
59043;BME280;44826;51.596;5.624;2022-12-07T14:42:12;101440.66;;;5.27;86.19
59043;BME280;44826;51.596;5.624;2022-12-07T14:44:37;101450.03;;;5.19;85.57
59043;BME280;44826;51.596;5.624;2022-12-07T14:47:02;101449.97;;;5.07;85.23
59043;BME280;44826;51.596;5.624;2022-12-07T14:49:27;101458.47;;;4.95;83.58
59043;BME280;44826;51.596;5.624;2022-12-07T14:51:53;101454.88;;;4.74;83.37
59043;BME280;44826;51.596;5.624;2022-12-07T14:54:20;101452.09;;;4.51;82.67
59043;BME280;44826;51.596;5.624;2022-12-07T14:56:46;101445.94;;;4.36;83.75
59043;BME280;44826;51.596;5.624;2022-12-07T14:59:15;101435.53;;;4.27;84.09